sensor_id;sensor_type;location;lat;lon;timestamp;temperature;humidity
14006;DHT22;7078;51.542;7.314;2023-04-06T00:00:39;2.60;99.90
14006;DHT22;7078;51.542;7.314;2023-04-06T00:03:04;2.60;99.90
14006;DHT22;7078;51.542;7.314;2023-04-06T00:05:30;2.60;99.90
14006;DHT22;7078;51.542;7.314;2023-04-06T00:07:58;2.50;99.90
14006;DHT22;7078;51.542;7.314;2023-04-06T00:10:23;2.50;99.90
14006;DHT22;7078;51.542;7.314;2023-04-06T00:12:49;2.50;99.90
14006;DHT22;7078;51.542;7.314;2023-04-06T00:15:14;2.50;99.90
14006;DHT22;7078;51.542;7.314;2023-04-06T00:17:40;2.40;99.90
14006;DHT22;7078;51.542;7.314;2023-04-06T00:20:06;2.40;99.90
14006;DHT22;7078;51.542;7.314;2023-04-06T00:22:32;2.40;99.90
14006;DHT22;7078;51.542;7.314;2023-04-06T00:24:57;2.30;99.90
14006;DHT22;7078;51.542;7.314;2023-04-06T00:27:23;2.30;99.90
14006;DHT22;7078;51.542;7.314;2023-04-06T00:29:48;2.30;99.90
14006;DHT22;7078;51.542;7.314;2023-04-06T00:32:14;2.30;99.90
14006;DHT22;7078;51.542;7.314;2023-04-06T00:34:39;2.30;99.90
14006;DHT22;7078;51.542;7.314;2023-04-06T00:37:05;2.30;99.90
14006;DHT22;7078;51.542;7.314;2023-04-06T00:39:31;2.30;99.90
14006;DHT22;7078;51.542;7.314;2023-04-06T00:41:56;2.30;99.90
14006;DHT22;7078;51.542;7.314;2023-04-06T00:44:22;2.30;99.90
14006;DHT22;7078;51.542;7.314;2023-04-06T00:46:48;2.30;99.90
14006;DHT22;7078;51.542;7.314;2023-04-06T00:49:13;2.20;99.90
14006;DHT22;7078;51.542;7.314;2023-04-06T00:51:39;2.20;99.90
14006;DHT22;7078;51.542;7.314;2023-04-06T00:54:05;2.20;99.90
14006;DHT22;7078;51.542;7.314;2023-04-06T00:56:31;2.20;99.90
14006;DHT22;7078;51.542;7.314;2023-04-06T00:58:56;2.10;99.90
14006;DHT22;7078;51.542;7.314;2023-04-06T01:01:23;2.10;99.90
14006;DHT22;7078;51.542;7.314;2023-04-06T01:03:49;2.10;99.90
14006;DHT22;7078;51.542;7.314;2023-04-06T01:06:15;2.10;99.90
14006;DHT22;7078;51.542;7.314;2023-04-06T01:08:41;2.10;99.90
14006;DHT22;7078;51.542;7.314;2023-04-06T01:11:07;2.10;99.90
14006;DHT22;7078;51.542;7.314;2023-04-06T01:13:32;2.10;99.90
14006;DHT22;7078;51.542;7.314;2023-04-06T01:15:58;2.10;99.90
14006;DHT22;7078;51.542;7.314;2023-04-06T01:18:27;2.20;99.90
14006;DHT22;7078;51.542;7.314;2023-04-06T01:20:53;2.20;99.90
14006;DHT22;7078;51.542;7.314;2023-04-06T01:23:18;2.20;99.90
14006;DHT22;7078;51.542;7.314;2023-04-06T01:25:44;2.30;99.90
14006;DHT22;7078;51.542;7.314;2023-04-06T01:28:10;2.30;99.90
14006;DHT22;7078;51.542;7.314;2023-04-06T01:30:35;2.40;99.90
14006;DHT22;7078;51.542;7.314;2023-04-06T01:33:01;2.40;99.90
14006;DHT22;7078;51.542;7.314;2023-04-06T01:35:27;2.50;99.90
14006;DHT22;7078;51.542;7.314;2023-04-06T01:37:53;2.60;99.90
14006;DHT22;7078;51.542;7.314;2023-04-06T01:40:18;2.60;99.90
14006;DHT22;7078;51.542;7.314;2023-04-06T01:42:44;2.80;99.90
14006;DHT22;7078;51.542;7.314;2023-04-06T01:45:10;2.80;99.90
14006;DHT22;7078;51.542;7.314;2023-04-06T01:47:35;2.90;99.90
14006;DHT22;7078;51.542;7.314;2023-04-06T01:50:01;3.00;99.90
14006;DHT22;7078;51.542;7.314;2023-04-06T01:52:28;3.10;99.90
14006;DHT22;7078;51.542;7.314;2023-04-06T01:54:54;3.20;99.90
14006;DHT22;7078;51.542;7.314;2023-04-06T01:57:19;3.30;99.90
14006;DHT22;7078;51.542;7.314;2023-04-06T01:59:45;3.30;99.90
14006;DHT22;7078;51.542;7.314;2023-04-06T02:02:11;3.30;99.90
14006;DHT22;7078;51.542;7.314;2023-04-06T02:04:38;3.40;99.90
14006;DHT22;7078;51.542;7.314;2023-04-06T02:07:03;3.40;99.90
14006;DHT22;7078;51.542;7.314;2023-04-06T02:09:29;3.40;99.90
14006;DHT22;7078;51.542;7.314;2023-04-06T02:11:55;3.40;99.90
14006;DHT22;7078;51.542;7.314;2023-04-06T02:14:23;3.40;99.90
14006;DHT22;7078;51.542;7.314;2023-04-06T02:16:49;3.50;99.90
14006;DHT22;7078;51.542;7.314;2023-04-06T02:19:14;3.40;99.90
14006;DHT22;7078;51.542;7.314;2023-04-06T02:21:40;3.50;99.90
14006;DHT22;7078;51.542;7.314;2023-04-06T02:24:06;3.50;99.90
14006;DHT22;7078;51.542;7.314;2023-04-06T02:26:31;3.50;99.90
14006;DHT22;7078;51.542;7.314;2023-04-06T02:28:57;3.40;99.90
14006;DHT22;7078;51.542;7.314;2023-04-06T02:31:22;3.60;99.90
14006;DHT22;7078;51.542;7.314;2023-04-06T02:33:48;3.40;99.90
14006;DHT22;7078;51.542;7.314;2023-04-06T02:36:13;3.40;99.90
14006;DHT22;7078;51.542;7.314;2023-04-06T02:38:39;3.40;99.90
14006;DHT22;7078;51.542;7.314;2023-04-06T02:41:04;3.40;99.90
14006;DHT22;7078;51.542;7.314;2023-04-06T02:43:30;3.40;99.90
14006;DHT22;7078;51.542;7.314;2023-04-06T02:45:56;3.40;99.90
14006;DHT22;7078;51.542;7.314;2023-04-06T02:48:21;3.40;99.90
14006;DHT22;7078;51.542;7.314;2023-04-06T02:50:47;3.30;99.90
14006;DHT22;7078;51.542;7.314;2023-04-06T02:53:12;3.30;99.90
14006;DHT22;7078;51.542;7.314;2023-04-06T02:55:38;3.30;99.90
14006;DHT22;7078;51.542;7.314;2023-04-06T02:58:04;3.30;99.90
14006;DHT22;7078;51.542;7.314;2023-04-06T03:00:29;3.20;99.90
14006;DHT22;7078;51.542;7.314;2023-04-06T03:02:55;3.20;99.90
14006;DHT22;7078;51.542;7.314;2023-04-06T03:05:20;3.20;99.90
14006;DHT22;7078;51.542;7.314;2023-04-06T03:07:46;3.10;99.90
14006;DHT22;7078;51.542;7.314;2023-04-06T03:10:11;3.00;99.90
14006;DHT22;7078;51.542;7.314;2023-04-06T03:12:37;2.90;99.90
14006;DHT22;7078;51.542;7.314;2023-04-06T03:15:03;2.90;99.90
14006;DHT22;7078;51.542;7.314;2023-04-06T03:17:28;2.80;99.90
14006;DHT22;7078;51.542;7.314;2023-04-06T03:19:54;2.90;99.90
14006;DHT22;7078;51.542;7.314;2023-04-06T03:22:20;2.90;99.90
14006;DHT22;7078;51.542;7.314;2023-04-06T03:24:46;2.90;99.90
14006;DHT22;7078;51.542;7.314;2023-04-06T03:27:11;2.80;99.90
14006;DHT22;7078;51.542;7.314;2023-04-06T03:29:37;2.80;99.90
14006;DHT22;7078;51.542;7.314;2023-04-06T03:32:02;2.80;99.90
14006;DHT22;7078;51.542;7.314;2023-04-06T03:34:28;2.80;99.90
14006;DHT22;7078;51.542;7.314;2023-04-06T03:36:53;2.70;99.90
14006;DHT22;7078;51.542;7.314;2023-04-06T03:39:19;2.80;99.90
14006;DHT22;7078;51.542;7.314;2023-04-06T03:41:45;2.70;99.90
14006;DHT22;7078;51.542;7.314;2023-04-06T03:44:10;2.70;99.90
14006;DHT22;7078;51.542;7.314;2023-04-06T03:46:36;2.70;99.90
14006;DHT22;7078;51.542;7.314;2023-04-06T03:49:02;2.70;99.90
14006;DHT22;7078;51.542;7.314;2023-04-06T03:51:27;2.70;99.90
14006;DHT22;7078;51.542;7.314;2023-04-06T03:53:53;2.80;99.90
14006;DHT22;7078;51.542;7.314;2023-04-06T03:56:18;2.90;99.90
14006;DHT22;7078;51.542;7.314;2023-04-06T03:58:45;2.70;99.90
14006;DHT22;7078;51.542;7.314;2023-04-06T04:01:10;2.90;99.90
14006;DHT22;7078;51.542;7.314;2023-04-06T04:03:36;2.90;99.90
14006;DHT22;7078;51.542;7.314;2023-04-06T04:06:02;3.00;99.90
14006;DHT22;7078;51.542;7.314;2023-04-06T04:08:27;3.00;99.90
14006;DHT22;7078;51.542;7.314;2023-04-06T04:10:53;3.10;99.90
14006;DHT22;7078;51.542;7.314;2023-04-06T04:13:19;3.10;99.90
14006;DHT22;7078;51.542;7.314;2023-04-06T04:15:44;3.20;99.90
14006;DHT22;7078;51.542;7.314;2023-04-06T04:18:10;3.20;99.90
14006;DHT22;7078;51.542;7.314;2023-04-06T04:20:35;3.20;99.90
14006;DHT22;7078;51.542;7.314;2023-04-06T04:23:01;3.20;99.90
14006;DHT22;7078;51.542;7.314;2023-04-06T04:25:26;3.30;99.90
14006;DHT22;7078;51.542;7.314;2023-04-06T04:27:52;3.30;99.90
14006;DHT22;7078;51.542;7.314;2023-04-06T04:30:17;3.30;99.90
14006;DHT22;7078;51.542;7.314;2023-04-06T04:32:43;3.30;99.90
14006;DHT22;7078;51.542;7.314;2023-04-06T04:35:09;3.30;99.90
14006;DHT22;7078;51.542;7.314;2023-04-06T04:37:35;3.30;99.90
14006;DHT22;7078;51.542;7.314;2023-04-06T04:40:00;3.30;99.90
14006;DHT22;7078;51.542;7.314;2023-04-06T04:42:26;3.30;99.90
14006;DHT22;7078;51.542;7.314;2023-04-06T04:44:51;3.30;99.90
14006;DHT22;7078;51.542;7.314;2023-04-06T04:47:17;3.30;99.90
14006;DHT22;7078;51.542;7.314;2023-04-06T04:49:42;3.20;99.90
14006;DHT22;7078;51.542;7.314;2023-04-06T04:52:08;3.20;99.90
14006;DHT22;7078;51.542;7.314;2023-04-06T04:54:33;3.20;99.90
14006;DHT22;7078;51.542;7.314;2023-04-06T04:56:59;3.20;99.90
14006;DHT22;7078;51.542;7.314;2023-04-06T04:59:24;3.20;99.90
14006;DHT22;7078;51.542;7.314;2023-04-06T05:01:50;3.20;99.90
14006;DHT22;7078;51.542;7.314;2023-04-06T05:04:15;3.10;99.90
14006;DHT22;7078;51.542;7.314;2023-04-06T05:06:41;3.10;99.90
14006;DHT22;7078;51.542;7.314;2023-04-06T05:09:06;3.30;99.90
14006;DHT22;7078;51.542;7.314;2023-04-06T05:11:32;3.10;99.90
14006;DHT22;7078;51.542;7.314;2023-04-06T05:13:59;3.10;99.90
14006;DHT22;7078;51.542;7.314;2023-04-06T05:16:24;3.20;99.90
14006;DHT22;7078;51.542;7.314;2023-04-06T05:18:50;3.20;99.90
14006;DHT22;7078;51.542;7.314;2023-04-06T05:21:16;3.30;99.90
14006;DHT22;7078;51.542;7.314;2023-04-06T05:23:41;3.30;99.90
14006;DHT22;7078;51.542;7.314;2023-04-06T05:26:07;3.40;99.90
14006;DHT22;7078;51.542;7.314;2023-04-06T05:28:32;3.40;99.90
14006;DHT22;7078;51.542;7.314;2023-04-06T05:30:58;3.50;99.90
14006;DHT22;7078;51.542;7.314;2023-04-06T05:33:24;3.50;99.90
14006;DHT22;7078;51.542;7.314;2023-04-06T05:35:50;3.50;99.90
14006;DHT22;7078;51.542;7.314;2023-04-06T05:38:15;3.60;99.90
14006;DHT22;7078;51.542;7.314;2023-04-06T05:40:41;3.60;99.90
14006;DHT22;7078;51.542;7.314;2023-04-06T05:43:07;3.70;99.90
14006;DHT22;7078;51.542;7.314;2023-04-06T05:45:33;3.70;99.90
14006;DHT22;7078;51.542;7.314;2023-04-06T05:47:58;3.80;99.90
14006;DHT22;7078;51.542;7.314;2023-04-06T05:50:24;3.80;99.90
14006;DHT22;7078;51.542;7.314;2023-04-06T05:52:50;3.90;99.90
14006;DHT22;7078;51.542;7.314;2023-04-06T05:55:15;3.90;99.90
14006;DHT22;7078;51.542;7.314;2023-04-06T05:57:41;4.00;99.50
14006;DHT22;7078;51.542;7.314;2023-04-06T06:00:07;4.00;99.30
14006;DHT22;7078;51.542;7.314;2023-04-06T06:02:35;4.10;98.70
14006;DHT22;7078;51.542;7.314;2023-04-06T06:05:01;4.10;98.40
14006;DHT22;7078;51.542;7.314;2023-04-06T06:07:27;4.20;98.10
14006;DHT22;7078;51.542;7.314;2023-04-06T06:09:56;4.30;97.40
14006;DHT22;7078;51.542;7.314;2023-04-06T06:12:22;4.30;96.90
14006;DHT22;7078;51.542;7.314;2023-04-06T06:14:47;4.40;96.40
14006;DHT22;7078;51.542;7.314;2023-04-06T06:17:13;4.50;96.00
14006;DHT22;7078;51.542;7.314;2023-04-06T06:19:40;4.50;96.10
14006;DHT22;7078;51.542;7.314;2023-04-06T06:22:06;4.60;95.60
14006;DHT22;7078;51.542;7.314;2023-04-06T06:24:31;4.70;95.00
14006;DHT22;7078;51.542;7.314;2023-04-06T06:26:57;4.80;94.20
14006;DHT22;7078;51.542;7.314;2023-04-06T06:29:23;4.90;94.20
14006;DHT22;7078;51.542;7.314;2023-04-06T06:31:49;5.00;94.00
14006;DHT22;7078;51.542;7.314;2023-04-06T06:34:15;5.00;93.40
14006;DHT22;7078;51.542;7.314;2023-04-06T06:36:40;5.10;94.50
14006;DHT22;7078;51.542;7.314;2023-04-06T06:39:06;5.30;96.90
14006;DHT22;7078;51.542;7.314;2023-04-06T06:41:31;5.40;94.60
14006;DHT22;7078;51.542;7.314;2023-04-06T06:43:57;5.50;93.90
14006;DHT22;7078;51.542;7.314;2023-04-06T06:46:22;5.60;93.30
14006;DHT22;7078;51.542;7.314;2023-04-06T06:48:48;5.80;92.40
14006;DHT22;7078;51.542;7.314;2023-04-06T06:51:13;5.90;91.60
14006;DHT22;7078;51.542;7.314;2023-04-06T06:53:39;6.00;91.50
14006;DHT22;7078;51.542;7.314;2023-04-06T06:56:05;6.10;90.60
14006;DHT22;7078;51.542;7.314;2023-04-06T06:58:30;6.10;90.00
14006;DHT22;7078;51.542;7.314;2023-04-06T07:00:57;6.20;90.20
14006;DHT22;7078;51.542;7.314;2023-04-06T07:03:23;6.30;87.20
14006;DHT22;7078;51.542;7.314;2023-04-06T07:05:49;6.40;87.00
14006;DHT22;7078;51.542;7.314;2023-04-06T07:08:19;6.50;86.50
14006;DHT22;7078;51.542;7.314;2023-04-06T07:10:44;6.60;86.80
14006;DHT22;7078;51.542;7.314;2023-04-06T07:13:10;6.60;85.40
14006;DHT22;7078;51.542;7.314;2023-04-06T07:15:35;6.80;85.40
14006;DHT22;7078;51.542;7.314;2023-04-06T07:18:02;7.00;84.50
14006;DHT22;7078;51.542;7.314;2023-04-06T07:20:27;7.00;83.10
14006;DHT22;7078;51.542;7.314;2023-04-06T07:22:53;7.10;82.60
14006;DHT22;7078;51.542;7.314;2023-04-06T07:25:19;7.10;82.60
14006;DHT22;7078;51.542;7.314;2023-04-06T07:27:44;7.20;82.50
14006;DHT22;7078;51.542;7.314;2023-04-06T07:30:11;7.20;82.10
14006;DHT22;7078;51.542;7.314;2023-04-06T07:32:36;7.30;82.00
14006;DHT22;7078;51.542;7.314;2023-04-06T07:35:03;7.30;81.20
14006;DHT22;7078;51.542;7.314;2023-04-06T07:37:29;7.40;81.20
14006;DHT22;7078;51.542;7.314;2023-04-06T07:39:55;7.40;80.10
14006;DHT22;7078;51.542;7.314;2023-04-06T07:42:20;7.50;79.50
14006;DHT22;7078;51.542;7.314;2023-04-06T07:44:46;7.50;80.00
14006;DHT22;7078;51.542;7.314;2023-04-06T07:47:11;7.60;80.00
14006;DHT22;7078;51.542;7.314;2023-04-06T07:49:37;7.70;80.30
14006;DHT22;7078;51.542;7.314;2023-04-06T07:52:03;7.70;79.60
14006;DHT22;7078;51.542;7.314;2023-04-06T07:54:28;7.80;80.30
14006;DHT22;7078;51.542;7.314;2023-04-06T07:56:54;7.90;80.00
14006;DHT22;7078;51.542;7.314;2023-04-06T07:59:19;8.10;78.90
14006;DHT22;7078;51.542;7.314;2023-04-06T08:01:45;8.10;79.10
14006;DHT22;7078;51.542;7.314;2023-04-06T08:04:11;8.30;78.60
14006;DHT22;7078;51.542;7.314;2023-04-06T08:06:36;8.40;77.70
14006;DHT22;7078;51.542;7.314;2023-04-06T08:09:02;8.40;77.50
14006;DHT22;7078;51.542;7.314;2023-04-06T08:11:28;8.50;77.00
14006;DHT22;7078;51.542;7.314;2023-04-06T08:13:54;8.60;77.30
14006;DHT22;7078;51.542;7.314;2023-04-06T08:16:22;8.60;77.60
14006;DHT22;7078;51.542;7.314;2023-04-06T08:18:47;8.80;77.50
14006;DHT22;7078;51.542;7.314;2023-04-06T08:21:13;9.10;77.10
14006;DHT22;7078;51.542;7.314;2023-04-06T08:23:38;9.00;75.80
14006;DHT22;7078;51.542;7.314;2023-04-06T08:26:04;9.20;75.20
14006;DHT22;7078;51.542;7.314;2023-04-06T08:28:30;9.30;73.90
14006;DHT22;7078;51.542;7.314;2023-04-06T08:30:55;9.30;73.00
14006;DHT22;7078;51.542;7.314;2023-04-06T08:33:21;9.40;73.50
14006;DHT22;7078;51.542;7.314;2023-04-06T08:35:46;9.60;72.80
14006;DHT22;7078;51.542;7.314;2023-04-06T08:38:12;9.70;71.80
14006;DHT22;7078;51.542;7.314;2023-04-06T08:40:38;9.80;71.10
14006;DHT22;7078;51.542;7.314;2023-04-06T08:43:06;9.90;70.10
14006;DHT22;7078;51.542;7.314;2023-04-06T08:45:34;10.00;69.30
14006;DHT22;7078;51.542;7.314;2023-04-06T08:48:01;10.10;69.60
14006;DHT22;7078;51.542;7.314;2023-04-06T08:50:29;10.30;68.90
14006;DHT22;7078;51.542;7.314;2023-04-06T08:52:55;10.50;69.00
14006;DHT22;7078;51.542;7.314;2023-04-06T08:55:22;10.70;68.30
14006;DHT22;7078;51.542;7.314;2023-04-06T08:57:48;10.90;67.20
14006;DHT22;7078;51.542;7.314;2023-04-06T09:00:14;11.20;66.10
14006;DHT22;7078;51.542;7.314;2023-04-06T09:02:43;11.40;64.90
14006;DHT22;7078;51.542;7.314;2023-04-06T09:05:09;11.60;64.20
14006;DHT22;7078;51.542;7.314;2023-04-06T09:07:36;11.70;62.70
14006;DHT22;7078;51.542;7.314;2023-04-06T09:10:03;11.70;61.80
14006;DHT22;7078;51.542;7.314;2023-04-06T09:12:30;11.80;61.80
14006;DHT22;7078;51.542;7.314;2023-04-06T09:14:56;11.80;62.00
14006;DHT22;7078;51.542;7.314;2023-04-06T09:17:30;11.90;63.40
14006;DHT22;7078;51.542;7.314;2023-04-06T09:19:59;11.90;63.30
14006;DHT22;7078;51.542;7.314;2023-04-06T09:22:25;12.00;61.80
14006;DHT22;7078;51.542;7.314;2023-04-06T09:24:53;12.10;60.50
14006;DHT22;7078;51.542;7.314;2023-04-06T09:27:32;12.10;59.10
14006;DHT22;7078;51.542;7.314;2023-04-06T09:30:10;12.10;58.90
14006;DHT22;7078;51.542;7.314;2023-04-06T09:32:46;12.30;59.20
14006;DHT22;7078;51.542;7.314;2023-04-06T09:35:13;12.40;59.10
14006;DHT22;7078;51.542;7.314;2023-04-06T09:37:39;12.50;58.40
14006;DHT22;7078;51.542;7.314;2023-04-06T09:40:08;12.70;58.70
14006;DHT22;7078;51.542;7.314;2023-04-06T09:42:34;12.70;58.10
14006;DHT22;7078;51.542;7.314;2023-04-06T09:45:03;12.70;57.70
14006;DHT22;7078;51.542;7.314;2023-04-06T09:47:31;12.70;58.10
14006;DHT22;7078;51.542;7.314;2023-04-06T09:49:59;12.70;57.80
14006;DHT22;7078;51.542;7.314;2023-04-06T09:52:33;12.50;57.90
14006;DHT22;7078;51.542;7.314;2023-04-06T09:55:04;12.60;59.10
14006;DHT22;7078;51.542;7.314;2023-04-06T09:57:44;12.60;57.60
14006;DHT22;7078;51.542;7.314;2023-04-06T10:00:13;12.60;58.00
14006;DHT22;7078;51.542;7.314;2023-04-06T10:02:58;12.60;57.00
14006;DHT22;7078;51.542;7.314;2023-04-06T10:08:09;12.60;57.40
14006;DHT22;7078;51.542;7.314;2023-04-06T10:10:35;12.70;57.40
14006;DHT22;7078;51.542;7.314;2023-04-06T10:13:01;12.90;57.40
14006;DHT22;7078;51.542;7.314;2023-04-06T10:15:30;12.90;57.60
14006;DHT22;7078;51.542;7.314;2023-04-06T10:17:57;12.90;56.90
14006;DHT22;7078;51.542;7.314;2023-04-06T10:20:25;13.00;57.00
14006;DHT22;7078;51.542;7.314;2023-04-06T10:23:04;13.10;57.50
14006;DHT22;7078;51.542;7.314;2023-04-06T10:25:32;13.20;57.50
14006;DHT22;7078;51.542;7.314;2023-04-06T10:28:00;13.30;57.00
14006;DHT22;7078;51.542;7.314;2023-04-06T10:30:26;13.50;57.00
14006;DHT22;7078;51.542;7.314;2023-04-06T10:32:52;13.50;56.80
14006;DHT22;7078;51.542;7.314;2023-04-06T10:35:18;13.60;57.50
14006;DHT22;7078;51.542;7.314;2023-04-06T10:37:49;13.70;56.20
14006;DHT22;7078;51.542;7.314;2023-04-06T10:40:25;13.60;56.60
14006;DHT22;7078;51.542;7.314;2023-04-06T10:42:54;13.70;56.10
14006;DHT22;7078;51.542;7.314;2023-04-06T10:45:25;13.60;55.90
14006;DHT22;7078;51.542;7.314;2023-04-06T10:47:54;13.70;55.40
14006;DHT22;7078;51.542;7.314;2023-04-06T10:50:20;13.90;55.80
14006;DHT22;7078;51.542;7.314;2023-04-06T10:52:46;13.80;55.80
14006;DHT22;7078;51.542;7.314;2023-04-06T10:55:13;13.90;56.00
14006;DHT22;7078;51.542;7.314;2023-04-06T10:57:39;14.00;56.20
14006;DHT22;7078;51.542;7.314;2023-04-06T11:00:08;13.90;56.00
14006;DHT22;7078;51.542;7.314;2023-04-06T11:02:35;13.90;55.80
14006;DHT22;7078;51.542;7.314;2023-04-06T11:05:03;14.00;55.90
14006;DHT22;7078;51.542;7.314;2023-04-06T11:07:28;14.10;57.10
14006;DHT22;7078;51.542;7.314;2023-04-06T11:09:56;14.10;56.50
14006;DHT22;7078;51.542;7.314;2023-04-06T11:12:23;14.00;53.90
14006;DHT22;7078;51.542;7.314;2023-04-06T11:17:26;14.20;51.50
14006;DHT22;7078;51.542;7.314;2023-04-06T11:19:51;14.40;50.60
14006;DHT22;7078;51.542;7.314;2023-04-06T11:22:17;14.40;51.40
14006;DHT22;7078;51.542;7.314;2023-04-06T11:24:42;14.40;50.90
14006;DHT22;7078;51.542;7.314;2023-04-06T11:27:08;14.40;51.10
14006;DHT22;7078;51.542;7.314;2023-04-06T11:29:34;14.40;50.20
14006;DHT22;7078;51.542;7.314;2023-04-06T11:32:04;14.30;47.20
14006;DHT22;7078;51.542;7.314;2023-04-06T11:34:32;14.20;48.00
14006;DHT22;7078;51.542;7.314;2023-04-06T11:37:00;14.20;50.60
14006;DHT22;7078;51.542;7.314;2023-04-06T11:39:27;14.20;51.60
14006;DHT22;7078;51.542;7.314;2023-04-06T11:41:54;14.30;52.20
14006;DHT22;7078;51.542;7.314;2023-04-06T11:44:36;14.30;52.70
14006;DHT22;7078;51.542;7.314;2023-04-06T11:47:05;14.40;52.80
14006;DHT22;7078;51.542;7.314;2023-04-06T11:49:33;14.50;52.70
14006;DHT22;7078;51.542;7.314;2023-04-06T11:51:59;14.70;52.80
14006;DHT22;7078;51.542;7.314;2023-04-06T11:54:36;14.80;54.40
14006;DHT22;7078;51.542;7.314;2023-04-06T11:57:04;14.90;54.70
14006;DHT22;7078;51.542;7.314;2023-04-06T11:59:30;15.00;53.90
14006;DHT22;7078;51.542;7.314;2023-04-06T12:01:57;14.90;53.80
14006;DHT22;7078;51.542;7.314;2023-04-06T12:04:22;14.90;54.10
14006;DHT22;7078;51.542;7.314;2023-04-06T12:06:48;14.70;54.30
14006;DHT22;7078;51.542;7.314;2023-04-06T12:09:14;14.50;54.10
14006;DHT22;7078;51.542;7.314;2023-04-06T12:11:40;14.50;54.50
14006;DHT22;7078;51.542;7.314;2023-04-06T12:14:06;14.50;54.50
14006;DHT22;7078;51.542;7.314;2023-04-06T12:16:33;14.60;54.80
14006;DHT22;7078;51.542;7.314;2023-04-06T12:18:59;14.60;54.50
14006;DHT22;7078;51.542;7.314;2023-04-06T12:21:26;14.70;54.90
14006;DHT22;7078;51.542;7.314;2023-04-06T12:23:52;14.90;55.10
14006;DHT22;7078;51.542;7.314;2023-04-06T12:26:19;14.90;54.30
14006;DHT22;7078;51.542;7.314;2023-04-06T12:28:44;14.80;54.10
14006;DHT22;7078;51.542;7.314;2023-04-06T12:31:20;15.00;55.40
14006;DHT22;7078;51.542;7.314;2023-04-06T12:33:47;15.00;54.60
14006;DHT22;7078;51.542;7.314;2023-04-06T12:36:18;15.00;54.90
14006;DHT22;7078;51.542;7.314;2023-04-06T12:38:45;15.10;55.30
14006;DHT22;7078;51.542;7.314;2023-04-06T12:41:12;15.10;54.90
14006;DHT22;7078;51.542;7.314;2023-04-06T12:43:39;14.90;55.40
14006;DHT22;7078;51.542;7.314;2023-04-06T12:46:05;14.60;56.20
14006;DHT22;7078;51.542;7.314;2023-04-06T12:48:31;14.70;56.20
14006;DHT22;7078;51.542;7.314;2023-04-06T12:50:58;14.80;55.50
14006;DHT22;7078;51.542;7.314;2023-04-06T12:53:24;14.90;56.30
14006;DHT22;7078;51.542;7.314;2023-04-06T12:55:50;15.10;56.80
14006;DHT22;7078;51.542;7.314;2023-04-06T12:58:15;15.10;56.60
14006;DHT22;7078;51.542;7.314;2023-04-06T13:00:42;15.30;58.00
14006;DHT22;7078;51.542;7.314;2023-04-06T13:03:07;15.20;57.40
14006;DHT22;7078;51.542;7.314;2023-04-06T13:05:33;15.10;56.70
14006;DHT22;7078;51.542;7.314;2023-04-06T13:07:59;15.00;56.40
14006;DHT22;7078;51.542;7.314;2023-04-06T13:10:24;15.00;56.60
14006;DHT22;7078;51.542;7.314;2023-04-06T13:12:50;15.10;57.20
14006;DHT22;7078;51.542;7.314;2023-04-06T13:15:16;15.10;56.70
14006;DHT22;7078;51.542;7.314;2023-04-06T13:17:41;15.20;58.10
14006;DHT22;7078;51.542;7.314;2023-04-06T13:20:07;15.10;57.40
14006;DHT22;7078;51.542;7.314;2023-04-06T13:22:33;15.00;57.40
14006;DHT22;7078;51.542;7.314;2023-04-06T13:24:59;14.90;57.30
14006;DHT22;7078;51.542;7.314;2023-04-06T13:27:24;14.80;56.60
14006;DHT22;7078;51.542;7.314;2023-04-06T13:29:50;14.70;56.50
14006;DHT22;7078;51.542;7.314;2023-04-06T13:32:15;14.70;56.30
14006;DHT22;7078;51.542;7.314;2023-04-06T13:34:41;14.60;57.40
14006;DHT22;7078;51.542;7.314;2023-04-06T13:37:13;14.50;58.00
14006;DHT22;7078;51.542;7.314;2023-04-06T13:39:38;14.30;59.00
14006;DHT22;7078;51.542;7.314;2023-04-06T13:42:04;14.30;58.00
14006;DHT22;7078;51.542;7.314;2023-04-06T13:44:30;14.20;58.20
14006;DHT22;7078;51.542;7.314;2023-04-06T13:46:56;14.10;58.20
14006;DHT22;7078;51.542;7.314;2023-04-06T13:49:22;14.20;59.00
14006;DHT22;7078;51.542;7.314;2023-04-06T13:51:47;14.10;58.80
14006;DHT22;7078;51.542;7.314;2023-04-06T13:54:13;14.00;59.10
14006;DHT22;7078;51.542;7.314;2023-04-06T13:56:38;14.00;58.80
14006;DHT22;7078;51.542;7.314;2023-04-06T13:59:04;13.90;59.20
14006;DHT22;7078;51.542;7.314;2023-04-06T14:01:30;13.90;60.30
14006;DHT22;7078;51.542;7.314;2023-04-06T14:03:56;14.00;61.20
14006;DHT22;7078;51.542;7.314;2023-04-06T14:06:21;14.00;62.10
14006;DHT22;7078;51.542;7.314;2023-04-06T14:08:47;13.90;61.80
14006;DHT22;7078;51.542;7.314;2023-04-06T14:11:13;14.00;61.20
14006;DHT22;7078;51.542;7.314;2023-04-06T14:13:39;14.00;62.40
14006;DHT22;7078;51.542;7.314;2023-04-06T14:16:06;14.00;62.70
14006;DHT22;7078;51.542;7.314;2023-04-06T14:18:32;13.70;63.10
14006;DHT22;7078;51.542;7.314;2023-04-06T14:20:59;13.60;64.00
14006;DHT22;7078;51.542;7.314;2023-04-06T14:23:28;13.30;65.80
14006;DHT22;7078;51.542;7.314;2023-04-06T14:26:07;13.30;66.30
14006;DHT22;7078;51.542;7.314;2023-04-06T14:28:34;13.10;67.20
14006;DHT22;7078;51.542;7.314;2023-04-06T14:31:01;13.10;67.80
14006;DHT22;7078;51.542;7.314;2023-04-06T14:33:29;13.00;68.50
14006;DHT22;7078;51.542;7.314;2023-04-06T14:35:55;13.10;68.60
14006;DHT22;7078;51.542;7.314;2023-04-06T14:38:21;13.10;70.70
14006;DHT22;7078;51.542;7.314;2023-04-06T14:40:47;13.10;70.90
14006;DHT22;7078;51.542;7.314;2023-04-06T14:43:13;13.00;72.50
14006;DHT22;7078;51.542;7.314;2023-04-06T14:45:38;13.00;73.70
14006;DHT22;7078;51.542;7.314;2023-04-06T14:48:04;13.00;73.40
14006;DHT22;7078;51.542;7.314;2023-04-06T14:50:32;13.00;73.20
14006;DHT22;7078;51.542;7.314;2023-04-06T14:52:58;12.90;71.70
14006;DHT22;7078;51.542;7.314;2023-04-06T14:55:24;12.90;72.20
14006;DHT22;7078;51.542;7.314;2023-04-06T14:57:49;12.80;72.10
14006;DHT22;7078;51.542;7.314;2023-04-06T15:00:15;12.70;73.30
14006;DHT22;7078;51.542;7.314;2023-04-06T15:02:41;12.60;74.60
14006;DHT22;7078;51.542;7.314;2023-04-06T15:05:08;12.40;76.50
14006;DHT22;7078;51.542;7.314;2023-04-06T15:07:34;12.30;77.10
14006;DHT22;7078;51.542;7.314;2023-04-06T15:09:59;12.30;79.70
14006;DHT22;7078;51.542;7.314;2023-04-06T15:12:25;12.30;80.80
14006;DHT22;7078;51.542;7.314;2023-04-06T15:14:51;12.30;80.00
14006;DHT22;7078;51.542;7.314;2023-04-06T15:17:16;12.20;81.10
14006;DHT22;7078;51.542;7.314;2023-04-06T15:19:41;12.10;81.40
14006;DHT22;7078;51.542;7.314;2023-04-06T15:22:07;12.10;81.80
14006;DHT22;7078;51.542;7.314;2023-04-06T15:24:33;12.00;83.30
14006;DHT22;7078;51.542;7.314;2023-04-06T15:26:58;12.00;84.50
14006;DHT22;7078;51.542;7.314;2023-04-06T15:29:25;11.90;84.90
14006;DHT22;7078;51.542;7.314;2023-04-06T15:31:50;11.80;86.00
14006;DHT22;7078;51.542;7.314;2023-04-06T15:34:17;11.80;87.70
14006;DHT22;7078;51.542;7.314;2023-04-06T15:36:43;11.70;88.10
14006;DHT22;7078;51.542;7.314;2023-04-06T15:39:10;11.70;89.60
14006;DHT22;7078;51.542;7.314;2023-04-06T15:41:36;11.70;90.00
14006;DHT22;7078;51.542;7.314;2023-04-06T15:44:02;11.70;90.80
14006;DHT22;7078;51.542;7.314;2023-04-06T15:46:28;11.70;91.30
14006;DHT22;7078;51.542;7.314;2023-04-06T15:48:54;11.70;91.80
14006;DHT22;7078;51.542;7.314;2023-04-06T15:51:20;11.70;91.60
14006;DHT22;7078;51.542;7.314;2023-04-06T15:53:46;11.60;91.80